F/V Argentario — FGPE — position and weather

sailwx.info

Track history (hours):
 
Tides and Currents Weather Stations Pressure Air Temp Water Temp Dewpoint Dewpoint Depression Visibility Wind Speed Wind Dir Waves Ship Positions

F/V Argentario

Last reported at 2016-Jul-23 14:05 UTC. Time now 2016-Jul-23 15:01 UTC.
Position N 46°45' W 002°23'.

Length 22 m; draft 3.4 m.

Type: Fishing. MMSI: 228975000.

Date/timePositionNaut miles runAvg speedWind from/ knotsBaromVisibWave heightAir tempDewpointWater temp
2016-Jul-23 14:05N 46°45' W 002°23'2 4.0
2016-Jul-23 13:33N 46°44' W 002°21'0 0.0
2016-Jul-23 12:33N 46°44' W 002°21'0 0.0
2016-Jul-23 11:33N 46°44' W 002°21'0 0.0
2016-Jul-23 10:32N 46°44' W 002°21'1 1.0
2016-Jul-23 09:34N 46°44' W 002°19'4 3.5
2016-Jul-23 08:26N 46°40' W 002°18'4 4.8
2016-Jul-23 07:31N 46°44' W 002°21'0 0.1
2016-Jul-23 06:28N 46°44' W 002°21'  
2016-Jul-18 10:17N 46°26' W 002°58'0 0.7
2016-Jul-18 09:33N 46°26' W 002°59'1 0.3
2016-Jul-18 06:14N 46°25' W 002°58'1 0.7
2016-Jul-18 05:27N 46°26' W 002°58'1 0.8
2016-Jul-18 04:28N 46°27' W 002°58'0 0.1
2016-Jul-18 01:05N 46°27' W 002°59'3 0.2
2016-Jul-17 03:27N 46°24' W 002°57'27 1.6
2016-Jul-16 10:10N 45°57' W 002°54'1 1.1
2016-Jul-16 09:29N 45°58' W 002°53'0 0.2
2016-Jul-16 07:30N 45°57' W 002°53'1 0.9
2016-Jul-16 06:31N 45°56' W 002°53'1 0.2
2016-Jul-15 22:18N 45°55' W 002°53'0 0.0
2016-Jul-15 21:27N 45°55' W 002°53'6 0.5
2016-Jul-15 10:26N 45°56' W 002°45'1 1.2
2016-Jul-15 09:33N 45°56' W 002°43'35 3.1
2016-Jul-14 22:04N 46°19' W 002°04'3 5.4
2016-Jul-14 21:34N 46°20' W 002°01'6 5.6
2016-Jul-14 20:34N 46°24' W 001°55'6 5.6
2016-Jul-14 19:34N 46°28' W 001°49'2 2.4
2016-Jul-14 18:34N 46°30' W 001°47'3 3.3
2016-Jul-14 17:33N 46°27' W 001°50'9 9.1
2016-Jul-14 16:34N 46°21' W 001°60'  
Track history (hours):
 
Tides and Currents Weather Stations Pressure Air Temp Water Temp Dewpoint Dewpoint Depression Visibility Wind Speed Wind Dir Waves Ship Positions

F/V Argentario

Last reported at 2016-Jul-23 14:05 UTC. Time now 2016-Jul-23 15:01 UTC.
Position N 46°45' W 002°23'.

Length 22 m; draft 3.4 m.

Type: Fishing. MMSI: 228975000.

Date/timePositionNaut miles runAvg speedWind from/ knotsBaromVisibWave heightAir tempDewpointWater temp
2016-Jul-23 14:05N 46°45' W 002°23'2 4.0
2016-Jul-23 13:33N 46°44' W 002°21'0 0.0
2016-Jul-23 12:33N 46°44' W 002°21'0 0.0
2016-Jul-23 11:33N 46°44' W 002°21'0 0.0
2016-Jul-23 10:32N 46°44' W 002°21'1 1.0
2016-Jul-23 09:34N 46°44' W 002°19'4 3.5
2016-Jul-23 08:26N 46°40' W 002°18'4 4.8
2016-Jul-23 07:31N 46°44' W 002°21'0 0.1
2016-Jul-23 06:28N 46°44' W 002°21'  
2016-Jul-18 10:17N 46°26' W 002°58'0 0.7
2016-Jul-18 09:33N 46°26' W 002°59'1 0.3
2016-Jul-18 06:14N 46°25' W 002°58'1 0.7
2016-Jul-18 05:27N 46°26' W 002°58'1 0.8
2016-Jul-18 04:28N 46°27' W 002°58'0 0.1
2016-Jul-18 01:05N 46°27' W 002°59'3 0.2
2016-Jul-17 03:27N 46°24' W 002°57'27 1.6
2016-Jul-16 10:10N 45°57' W 002°54'1 1.1
2016-Jul-16 09:29N 45°58' W 002°53'0 0.2
2016-Jul-16 07:30N 45°57' W 002°53'1 0.9
2016-Jul-16 06:31N 45°56' W 002°53'1 0.2
2016-Jul-15 22:18N 45°55' W 002°53'0 0.0
2016-Jul-15 21:27N 45°55' W 002°53'6 0.5
2016-Jul-15 10:26N 45°56' W 002°45'1 1.2
2016-Jul-15 09:33N 45°56' W 002°43'35 3.1
2016-Jul-14 22:04N 46°19' W 002°04'3 5.4
2016-Jul-14 21:34N 46°20' W 002°01'6 5.6
2016-Jul-14 20:34N 46°24' W 001°55'6 5.6
2016-Jul-14 19:34N 46°28' W 001°49'2 2.4
2016-Jul-14 18:34N 46°30' W 001°47'3 3.3
2016-Jul-14 17:33N 46°27' W 001°50'9 9.1
2016-Jul-14 16:34N 46°21' W 001°60'  

Dump ship's entire track history